createdAt,value
2023-03-28T00:00:53.677Z,1020.07
2023-03-28T00:01:53.631Z,1020.43
2023-03-28T00:02:53.605Z,1020.46
2023-03-28T00:03:53.533Z,1020.46
2023-03-28T00:04:53.473Z,1020.44
2023-03-28T00:05:53.450Z,1020.42
2023-03-28T00:06:53.392Z,1020.26
2023-03-28T00:07:53.335Z,1020.16
2023-03-28T00:08:53.292Z,1020.50
2023-03-28T00:09:53.235Z,1020.16
2023-03-28T00:10:53.200Z,1020.20
2023-03-28T00:11:53.145Z,1020.21
2023-03-28T00:12:53.096Z,1020.24
2023-03-28T00:13:53.056Z,1020.27
2023-03-28T00:14:53.042Z,1020.28
2023-03-28T00:15:53.063Z,1020.27
2023-03-28T00:16:52.914Z,1020.60
2023-03-28T00:17:52.900Z,1020.66
2023-03-28T00:18:52.826Z,1020.27
2023-03-28T00:19:52.803Z,1020.27
2023-03-28T00:20:52.731Z,1020.31
2023-03-28T00:21:52.715Z,1020.30
2023-03-28T00:22:52.650Z,1020.66
2023-03-28T00:23:52.621Z,1020.66
2023-03-28T00:24:52.570Z,1020.64
2023-03-28T00:25:52.557Z,1020.34
2023-03-28T00:26:52.484Z,1020.69
2023-03-28T00:27:52.411Z,1020.33
2023-03-28T00:28:52.371Z,1020.35
2023-03-28T00:29:52.328Z,1020.34
2023-03-28T00:30:52.318Z,1020.34
2023-03-28T00:31:52.281Z,1020.30
2023-03-28T00:32:52.212Z,1020.30
2023-03-28T00:33:52.136Z,1020.31
2023-03-28T00:34:52.107Z,1020.31
2023-03-28T00:35:52.087Z,1020.30
2023-03-28T00:36:52.005Z,1020.31
2023-03-28T00:37:51.950Z,1020.28
2023-03-28T00:38:51.896Z,1020.61
2023-03-28T00:39:51.870Z,1020.28
2023-03-28T00:40:51.833Z,1020.31
2023-03-28T00:41:51.781Z,1020.68
2023-03-28T00:42:51.725Z,1020.69
2023-03-28T00:43:51.709Z,1020.71
2023-03-28T00:44:51.701Z,1020.71
2023-03-28T00:46:06.255Z,1020.69
2023-03-28T00:46:51.622Z,1020.70
2023-03-28T00:47:51.632Z,1020.37
2023-03-28T00:48:51.457Z,1020.70
2023-03-28T00:49:51.402Z,1020.37
2023-03-28T00:50:51.357Z,1020.35
2023-03-28T00:51:51.328Z,1020.37
2023-03-28T00:52:51.302Z,1020.33
2023-03-28T00:53:51.212Z,1020.33
2023-03-28T00:54:51.168Z,1020.35
2023-03-28T00:55:51.127Z,1020.33
2023-03-28T00:56:51.139Z,1020.33
2023-03-28T00:57:51.051Z,1020.32
2023-03-28T00:58:50.985Z,1020.32
2023-03-28T00:59:50.940Z,1020.32
2023-03-28T01:00:50.902Z,1020.43
2023-03-28T01:01:50.918Z,1020.35
2023-03-28T01:02:51.006Z,1020.32
2023-03-28T01:03:50.822Z,1020.33
2023-03-28T01:04:50.718Z,1020.59
2023-03-28T01:05:50.685Z,1020.36
2023-03-28T01:06:50.611Z,1020.34
2023-03-28T01:07:50.560Z,1020.32
2023-03-28T01:08:50.516Z,1020.36
2023-03-28T01:09:50.471Z,1020.34
2023-03-28T01:10:50.424Z,1020.39
2023-03-28T01:11:50.421Z,1020.36
2023-03-28T01:12:50.340Z,1020.37
2023-03-28T01:13:50.303Z,1020.39
2023-03-28T01:14:50.235Z,1020.36
2023-03-28T01:15:50.223Z,1020.36
2023-03-28T01:16:59.241Z,1020.72
2023-03-28T01:17:50.136Z,1020.72
2023-03-28T01:18:50.059Z,1020.35
2023-03-28T01:19:49.993Z,1020.37
2023-03-28T01:20:49.959Z,1020.52
2023-03-28T01:21:49.902Z,1020.75
2023-03-28T01:22:56.765Z,1020.40
2023-03-28T01:23:49.823Z,1020.73
2023-03-28T01:24:49.761Z,1020.74
2023-03-28T01:25:49.721Z,1020.70
2023-03-28T01:26:49.718Z,1020.70
2023-03-28T01:27:49.630Z,1020.36
2023-03-28T01:28:49.576Z,1020.38
2023-03-28T01:29:49.552Z,1020.42
2023-03-28T01:30:49.482Z,1020.34
2023-03-28T01:31:49.449Z,1020.37
2023-03-28T01:32:49.412Z,1020.36
2023-03-28T01:33:49.346Z,1020.43
2023-03-28T01:34:49.300Z,1020.69
2023-03-28T01:35:49.298Z,1020.67
2023-03-28T01:36:49.216Z,1020.65
2023-03-28T01:37:49.175Z,1020.63
2023-03-28T01:38:49.113Z,1020.62
2023-03-28T01:39:49.072Z,1020.27
2023-03-28T01:40:49.039Z,1020.61
2023-03-28T01:41:48.989Z,1020.59
2023-03-28T01:42:48.926Z,1020.28
2023-03-28T01:43:48.890Z,1020.28
2023-03-28T01:44:48.864Z,1020.58
2023-03-28T01:45:48.805Z,1020.25
2023-03-28T01:46:48.750Z,1020.23
2023-03-28T01:47:48.760Z,1020.55
2023-03-28T01:48:48.651Z,1020.55
2023-03-28T01:49:48.604Z,1020.49
2023-03-28T01:50:48.570Z,1020.14
2023-03-28T01:51:48.533Z,1020.48
2023-03-28T01:52:48.471Z,1020.49
2023-03-28T01:53:48.416Z,1020.50
2023-03-28T01:54:48.373Z,1020.22
2023-03-28T01:55:48.335Z,1020.15
2023-03-28T01:56:48.326Z,1020.12
2023-03-28T01:57:48.254Z,1020.14
2023-03-28T01:58:48.200Z,1020.12
2023-03-28T01:59:48.142Z,1020.46
2023-03-28T02:00:48.116Z,1020.12
2023-03-28T02:01:48.052Z,1020.42
2023-03-28T02:02:48.051Z,1020.41
2023-03-28T02:03:47.967Z,1020.42
2023-03-28T02:04:47.921Z,1020.44
2023-03-28T02:05:47.869Z,1020.40
2023-03-28T02:06:47.805Z,1020.40
2023-03-28T02:07:47.764Z,1020.41
2023-03-28T02:08:47.739Z,1020.06
2023-03-28T02:09:47.684Z,1020.05
2023-03-28T02:10:47.629Z,1020.08
2023-03-28T02:11:47.582Z,1020.05
2023-03-28T02:12:47.535Z,1020.06
2023-03-28T02:13:47.492Z,1020.05
2023-03-28T02:14:47.457Z,1020.00
2023-03-28T02:15:47.396Z,1020.02
2023-03-28T02:16:47.422Z,1020.40
2023-03-28T02:17:47.342Z,1020.40
2023-03-28T02:18:47.263Z,1020.38
2023-03-28T02:19:47.221Z,1020.39
2023-03-28T02:20:47.193Z,1020.05
2023-03-28T02:21:47.145Z,1020.40
2023-03-28T02:22:47.074Z,1020.07
2023-03-28T02:23:47.037Z,1020.06
2023-03-28T02:24:46.983Z,1020.43
2023-03-28T02:25:46.936Z,1020.41
2023-03-28T02:26:47.676Z,1020.39
2023-03-28T02:27:46.855Z,1020.05
2023-03-28T02:28:46.808Z,1020.05
2023-03-28T02:29:46.756Z,1020.03
2023-03-28T02:30:46.709Z,1020.04
2023-03-28T02:31:46.701Z,1020.07
2023-03-28T02:32:46.638Z,1020.07
2023-03-28T02:33:46.585Z,1020.09
2023-03-28T02:34:46.535Z,1020.04
2023-03-28T02:35:46.502Z,1020.06
2023-03-28T02:36:46.432Z,1020.05
2023-03-28T02:37:46.393Z,1020.06
2023-03-28T02:38:46.349Z,1020.03
2023-03-28T02:39:46.295Z,1020.06
2023-03-28T02:40:46.255Z,1020.03
2023-03-28T02:41:46.194Z,1020.05
2023-03-28T02:42:46.156Z,1020.04
2023-03-28T02:43:46.113Z,1020.04
2023-03-28T02:44:46.072Z,1020.02
2023-03-28T02:45:46.109Z,1020.01
2023-03-28T02:46:45.966Z,1020.00
2023-03-28T02:47:46.030Z,1020.35
2023-03-28T02:48:45.868Z,1020.03
2023-03-28T02:49:50.327Z,1020.02
2023-03-28T02:50:45.794Z,1020.06
2023-03-28T02:51:45.728Z,1020.07
2023-03-28T02:52:45.700Z,1020.07
2023-03-28T02:53:45.640Z,1020.06
2023-03-28T02:54:45.586Z,1020.07
2023-03-28T02:55:45.543Z,1020.41
2023-03-28T02:56:45.546Z,1020.46
2023-03-28T02:57:45.459Z,1020.06
2023-03-28T02:58:45.414Z,1020.08
2023-03-28T02:59:45.355Z,1020.30
2023-03-28T03:00:45.317Z,1020.31
2023-03-28T03:01:45.302Z,1020.40
2023-03-28T03:02:45.334Z,1020.41
2023-03-28T03:03:45.202Z,1020.00
2023-03-28T03:04:45.127Z,1020.37
2023-03-28T03:05:45.072Z,1020.35
2023-03-28T03:06:45.034Z,1020.36
2023-03-28T03:07:44.982Z,1020.38
2023-03-28T03:08:44.952Z,1020.13
2023-03-28T03:09:45.937Z,1020.40
2023-03-28T03:10:44.844Z,1020.06
2023-03-28T03:11:44.803Z,1020.10
2023-03-28T03:12:44.757Z,1020.07
2023-03-28T03:13:44.738Z,1020.06
2023-03-28T03:14:44.749Z,1020.37
2023-03-28T03:15:44.725Z,1020.40
2023-03-28T03:16:44.568Z,1020.05
2023-03-28T03:17:44.538Z,1020.12
2023-03-28T03:18:44.476Z,1020.09
2023-03-28T03:19:44.422Z,1020.10
2023-03-28T03:20:44.389Z,1020.11
2023-03-28T03:21:44.339Z,1020.10
2023-03-28T03:22:44.340Z,1020.09
2023-03-28T03:23:44.256Z,1020.10
2023-03-28T03:24:44.196Z,1020.11
2023-03-28T03:25:44.162Z,1020.10
2023-03-28T03:26:44.099Z,1020.11
2023-03-28T03:27:44.047Z,1020.13
2023-03-28T03:28:44.030Z,1020.13
2023-03-28T03:29:43.953Z,1020.15
2023-03-28T03:30:43.919Z,1020.16
2023-03-28T03:31:43.883Z,1020.14
2023-03-28T03:32:43.873Z,1020.13
2023-03-28T03:33:43.784Z,1020.12
2023-03-28T03:34:43.727Z,1020.15
2023-03-28T03:35:43.699Z,1020.15
2023-03-28T03:36:43.633Z,1020.16
2023-03-28T03:37:43.577Z,1020.13
2023-03-28T03:38:43.612Z,1020.14
2023-03-28T03:39:43.486Z,1020.17
2023-03-28T03:40:43.452Z,1020.15
2023-03-28T03:41:43.392Z,1020.14
2023-03-28T03:42:43.385Z,1020.16
2023-03-28T03:43:44.329Z,1020.25
2023-03-28T03:44:43.268Z,1020.25
2023-03-28T03:45:43.211Z,1020.63
2023-03-28T03:46:43.225Z,1020.26
2023-03-28T03:47:43.156Z,1020.26
2023-03-28T03:48:49.552Z,1020.30
2023-03-28T03:49:43.018Z,1020.29
2023-03-28T03:50:42.981Z,1020.31
2023-03-28T03:51:42.932Z,1020.63
2023-03-28T03:52:42.896Z,1020.31
2023-03-28T03:53:42.841Z,1020.31
2023-03-28T03:54:42.803Z,1020.33
2023-03-28T03:55:42.756Z,1020.31
2023-03-28T03:56:42.731Z,1020.66
2023-03-28T03:57:42.654Z,1020.65
2023-03-28T03:58:42.598Z,1020.34
2023-03-28T03:59:42.560Z,1020.34
2023-03-28T04:00:42.501Z,1020.69
2023-03-28T04:01:42.473Z,1020.72
2023-03-28T04:02:42.488Z,1020.73
2023-03-28T04:03:42.477Z,1020.73
2023-03-28T04:04:42.330Z,1020.40
2023-03-28T04:05:42.276Z,1020.76
2023-03-28T04:06:42.226Z,1020.70
2023-03-28T04:07:42.183Z,1020.74
2023-03-28T04:08:42.126Z,1020.74
2023-03-28T04:09:42.097Z,1020.71
2023-03-28T04:10:42.037Z,1020.50
2023-03-28T04:11:41.981Z,1020.75
2023-03-28T04:12:41.943Z,1020.74
2023-03-28T04:13:41.903Z,1020.75
2023-03-28T04:14:41.957Z,1020.74
2023-03-28T04:15:41.880Z,1020.75
2023-03-28T04:16:41.835Z,1020.57
2023-03-28T04:17:41.907Z,1020.37
2023-03-28T04:18:41.661Z,1020.38
2023-03-28T04:19:41.619Z,1020.70
2023-03-28T04:20:41.590Z,1020.38
2023-03-28T04:21:41.519Z,1020.35
2023-03-28T04:22:45.121Z,1020.37
2023-03-28T04:23:41.420Z,1020.32
2023-03-28T04:24:41.377Z,1020.34
2023-03-28T04:25:41.354Z,1020.38
2023-03-28T04:26:41.303Z,1020.37
2023-03-28T04:27:41.238Z,1020.35
2023-03-28T04:28:41.191Z,1020.37
2023-03-28T04:29:41.143Z,1020.33
2023-03-28T04:30:41.101Z,1020.37
2023-03-28T04:31:41.098Z,1020.34
2023-03-28T04:32:41.058Z,1020.35
2023-03-28T04:33:40.959Z,1020.33
2023-03-28T04:34:40.910Z,1020.33
2023-03-28T04:35:40.911Z,1020.34
2023-03-28T04:36:40.817Z,1020.35
2023-03-28T04:37:40.781Z,1020.35
2023-03-28T04:38:40.738Z,1020.33
2023-03-28T04:39:40.684Z,1020.34
2023-03-28T04:40:40.635Z,1020.32
2023-03-28T04:41:40.642Z,1020.31
2023-03-28T04:42:40.547Z,1020.67
2023-03-28T04:43:40.489Z,1020.73
2023-03-28T04:44:40.455Z,1020.37
2023-03-28T04:45:40.418Z,1020.77
2023-03-28T04:46:40.352Z,1020.42
2023-03-28T04:47:40.396Z,1020.47
2023-03-28T04:48:40.284Z,1020.44
2023-03-28T04:49:40.229Z,1020.50
2023-03-28T04:50:40.175Z,1020.77
2023-03-28T04:51:40.115Z,1020.52
2023-03-28T04:52:40.074Z,1020.53
2023-03-28T04:53:40.045Z,1020.44
2023-03-28T04:54:39.991Z,1020.43
2023-03-28T04:55:39.926Z,1020.43
2023-03-28T04:56:39.915Z,1020.44
2023-03-28T04:57:39.833Z,1020.44
2023-03-28T04:58:39.820Z,1020.44
2023-03-28T04:59:39.750Z,1020.59
2023-03-28T05:00:39.693Z,1020.46
2023-03-28T05:01:39.686Z,1020.46
2023-03-28T05:02:39.667Z,1020.55
2023-03-28T05:03:39.620Z,1020.51
2023-03-28T05:04:39.510Z,1020.89
2023-03-28T05:05:39.483Z,1020.54
2023-03-28T05:06:39.411Z,1020.88
2023-03-28T05:07:39.357Z,1020.54
2023-03-28T05:08:39.320Z,1020.49
2023-03-28T05:09:39.274Z,1020.50
2023-03-28T05:10:39.223Z,1020.55
2023-03-28T05:11:39.183Z,1020.49
2023-03-28T05:12:39.130Z,1020.52
2023-03-28T05:13:39.086Z,1020.52
2023-03-28T05:14:39.035Z,1020.52
2023-03-28T05:15:38.980Z,1020.67
2023-03-28T05:16:39.020Z,1020.92
2023-03-28T05:17:38.930Z,1020.88
2023-03-28T05:18:38.850Z,1020.90
2023-03-28T05:19:38.802Z,1020.55
2023-03-28T05:20:38.757Z,1020.74
2023-03-28T05:21:38.709Z,1020.59
2023-03-28T05:22:38.683Z,1020.58
2023-03-28T05:23:38.608Z,1020.62
2023-03-28T05:24:38.562Z,1020.66
2023-03-28T05:25:38.522Z,1020.62
2023-03-28T05:26:38.468Z,1020.66
2023-03-28T05:27:38.417Z,1020.66
2023-03-28T05:28:38.387Z,1020.62
2023-03-28T05:29:38.324Z,1020.64
2023-03-28T05:30:38.276Z,1020.65
2023-03-28T05:31:38.273Z,1020.65
2023-03-28T05:32:38.234Z,1020.66
2023-03-28T05:33:38.138Z,1020.66
2023-03-28T05:34:38.118Z,1020.65
2023-03-28T05:35:38.056Z,1020.74
2023-03-28T05:36:38.007Z,1021.06
2023-03-28T05:37:39.796Z,1020.74
2023-03-28T05:38:37.904Z,1020.71
2023-03-28T05:39:37.861Z,1021.09
2023-03-28T05:40:37.864Z,1021.06
2023-03-28T05:41:37.769Z,1021.05
2023-03-28T05:42:37.727Z,1021.09
2023-03-28T05:43:37.676Z,1021.09
2023-03-28T05:44:37.637Z,1021.07
2023-03-28T05:45:37.596Z,1020.73
2023-03-28T05:46:37.548Z,1020.74
2023-03-28T05:47:37.517Z,1021.10
2023-03-28T05:48:37.440Z,1021.10
2023-03-28T05:49:37.405Z,1021.09
2023-03-28T05:50:37.351Z,1021.08
2023-03-28T05:51:37.298Z,1020.76
2023-03-28T05:52:37.269Z,1020.78
2023-03-28T05:53:37.209Z,1021.11
2023-03-28T05:54:37.179Z,1021.05
2023-03-28T05:55:37.112Z,1020.74
2023-03-28T05:56:37.099Z,1020.78
2023-03-28T05:57:37.014Z,1021.12
2023-03-28T05:58:37.004Z,1020.79
2023-03-28T05:59:36.965Z,1020.79
2023-03-28T06:00:36.892Z,1021.19
2023-03-28T06:01:36.835Z,1021.16
2023-03-28T06:02:36.814Z,1020.75
2023-03-28T06:03:36.843Z,1020.73
2023-03-28T06:04:36.742Z,1021.07
2023-03-28T06:05:36.650Z,1021.07
2023-03-28T06:06:36.611Z,1021.11
2023-03-28T06:07:42.555Z,1020.77
2023-03-28T06:08:36.511Z,1021.14
2023-03-28T06:09:36.468Z,1021.15
2023-03-28T06:10:36.439Z,1020.81
2023-03-28T06:11:36.369Z,1021.15
2023-03-28T06:12:36.327Z,1021.25
2023-03-28T06:13:36.285Z,1021.31
2023-03-28T06:14:36.246Z,1021.08
2023-03-28T06:15:36.181Z,1021.11
2023-03-28T06:16:36.207Z,1021.09
2023-03-28T06:17:36.136Z,1021.12
2023-03-28T06:18:36.051Z,1021.14
2023-03-28T06:19:36.048Z,1021.19
2023-03-28T06:20:35.954Z,1021.20
2023-03-28T06:21:35.910Z,1021.29
2023-03-28T06:22:35.887Z,1021.65
2023-03-28T06:23:35.834Z,1021.35
2023-03-28T06:24:35.782Z,1021.41
2023-03-28T06:25:35.730Z,1021.74
2023-03-28T06:26:35.685Z,1021.43
2023-03-28T06:27:35.666Z,1021.43
2023-03-28T06:28:35.608Z,1021.49
2023-03-28T06:29:35.556Z,1021.53
2023-03-28T06:30:35.515Z,1021.59
2023-03-28T06:31:35.529Z,1021.58
2023-03-28T06:32:35.450Z,1021.99
2023-03-28T06:33:35.394Z,1021.64
2023-03-28T06:34:35.344Z,1021.66
2023-03-28T06:35:35.347Z,1021.65
2023-03-28T06:36:35.268Z,1021.71
2023-03-28T06:37:35.217Z,1022.07
2023-03-28T06:38:35.186Z,1021.75
2023-03-28T06:39:35.162Z,1022.08
2023-03-28T06:40:35.101Z,1022.15
2023-03-28T06:41:35.058Z,1021.99
2023-03-28T06:42:35.019Z,1022.21
2023-03-28T06:43:35.631Z,1021.88
2023-03-28T06:44:35.005Z,1021.90
2023-03-28T06:45:34.900Z,1021.97
2023-03-28T06:46:34.887Z,1022.26
2023-03-28T06:47:34.828Z,1021.90
2023-03-28T06:48:36.385Z,1022.28
2023-03-28T06:49:34.725Z,1021.94
2023-03-28T06:50:34.708Z,1022.32
2023-03-28T06:51:34.663Z,1022.19
2023-03-28T06:52:34.607Z,1021.84
2023-03-28T06:53:34.572Z,1022.23
2023-03-28T06:54:34.538Z,1022.31
2023-03-28T06:55:34.486Z,1021.87
2023-03-28T06:56:34.444Z,1021.95
2023-03-28T06:57:34.423Z,1021.87
2023-03-28T06:58:34.371Z,1022.32
2023-03-28T06:59:34.338Z,1022.23
2023-03-28T07:00:34.348Z,1022.03
2023-03-28T07:01:34.378Z,1021.99
2023-03-28T07:02:34.269Z,1022.08
2023-03-28T07:03:34.330Z,1022.50
2023-03-28T07:04:34.133Z,1022.51
2023-03-28T07:05:34.097Z,1021.89
2023-03-28T07:06:34.056Z,1022.32
2023-03-28T07:07:34.019Z,1021.99
2023-03-28T07:08:33.977Z,1022.06
2023-03-28T07:09:33.961Z,1022.18
2023-03-28T07:10:33.909Z,1022.05
2023-03-28T07:11:33.867Z,1022.12
2023-03-28T07:12:33.831Z,1022.12
2023-03-28T07:13:33.782Z,1022.14
2023-03-28T07:14:33.746Z,1022.66
2023-03-28T07:15:33.726Z,1022.22
2023-03-28T07:16:33.707Z,1022.00
2023-03-28T07:17:42.858Z,1021.93
2023-03-28T07:18:33.590Z,1022.21
2023-03-28T07:19:33.547Z,1022.66
2023-03-28T07:20:33.505Z,1022.35
2023-03-28T07:21:33.496Z,1022.40
2023-03-28T07:22:33.449Z,1022.34
2023-03-28T07:23:33.391Z,1022.73
2023-03-28T07:24:33.362Z,1022.47
2023-03-28T07:25:33.479Z,1022.88
2023-03-28T07:26:33.422Z,1022.51
2023-03-28T07:27:33.312Z,1022.93
2023-03-28T07:28:33.215Z,1022.77
2023-03-28T07:29:33.171Z,1022.90
2023-03-28T07:30:33.155Z,1022.82
2023-03-28T07:31:33.164Z,1022.53
2023-03-28T07:32:42.880Z,1022.62
2023-03-28T07:33:36.686Z,1022.64
2023-03-28T07:34:33.038Z,1023.00
2023-03-28T07:35:32.957Z,1022.68
2023-03-28T07:36:33.956Z,1022.67
2023-03-28T07:37:32.880Z,1023.03
2023-03-28T07:38:32.820Z,1022.94
2023-03-28T07:39:32.934Z,1023.07
2023-03-28T07:40:32.770Z,1022.74
2023-03-28T07:41:32.757Z,1022.70
2023-03-28T07:42:32.757Z,1022.96
2023-03-28T07:43:32.754Z,1022.84
2023-03-28T07:44:34.509Z,1022.83
2023-03-28T07:45:32.802Z,1022.85
2023-03-28T07:46:32.597Z,1022.85
2023-03-28T07:47:32.536Z,1023.14
2023-03-28T07:48:32.460Z,1022.82
2023-03-28T07:49:32.470Z,1022.85
2023-03-28T07:50:32.398Z,1022.88
2023-03-28T07:51:32.367Z,1022.87
2023-03-28T07:52:32.305Z,1023.09
2023-03-28T07:53:32.313Z,1022.72
2023-03-28T07:54:32.217Z,1023.07
2023-03-28T07:55:35.297Z,1022.76
2023-03-28T07:56:32.188Z,1023.06
2023-03-28T07:57:32.132Z,1022.86
2023-03-28T07:58:32.860Z,1023.05
2023-03-28T07:59:41.270Z,1022.70
2023-03-28T08:00:45.918Z,1022.63
2023-03-28T08:01:31.961Z,1022.98
2023-03-28T08:02:32.066Z,1022.65
2023-03-28T08:03:32.820Z,1022.63
2023-03-28T08:04:35.773Z,1023.07
2023-03-28T08:05:31.965Z,1023.07
2023-03-28T08:06:34.429Z,1022.73
2023-03-28T08:10:55.352Z,1022.82
2023-03-28T08:11:41.568Z,1022.77
2023-03-28T08:12:38.859Z,1023.11
2023-03-28T08:13:38.814Z,1022.75
2023-03-28T08:14:38.757Z,1022.75
2023-03-28T08:15:39.565Z,1022.80
2023-03-28T08:16:38.668Z,1022.77
2023-03-28T08:17:38.692Z,1022.81
2023-03-28T08:18:39.486Z,1022.84
2023-03-28T08:19:39.377Z,1022.65
2023-03-28T08:20:38.565Z,1022.42
2023-03-28T08:21:39.354Z,1023.22
2023-03-28T08:22:38.437Z,1022.85
2023-03-28T08:23:38.365Z,1022.88
2023-03-28T08:25:00.375Z,1023.29
2023-03-28T08:25:38.279Z,1023.30
2023-03-28T08:26:38.258Z,1023.35
2023-03-28T08:27:38.203Z,1023.03
2023-03-28T08:28:38.144Z,1023.10
2023-03-28T08:29:38.852Z,1023.44
2023-03-28T08:30:43.393Z,1023.07
2023-03-28T08:31:38.193Z,1022.65
2023-03-28T08:32:38.059Z,1023.05
2023-03-28T08:33:38.031Z,1022.67
2023-03-28T08:37:24.018Z,1022.98
2023-03-28T08:38:21.496Z,1023.27
2023-03-28T08:39:20.528Z,1023.30
2023-03-28T08:40:19.801Z,1022.94
2023-03-28T08:41:22.514Z,1023.28
2023-03-28T08:42:19.982Z,1022.84
2023-03-28T08:44:36.764Z,1023.32
2023-03-28T08:45:18.575Z,1022.93
2023-03-28T08:46:18.493Z,1022.85
2023-03-28T08:47:18.446Z,1022.88
2023-03-28T08:48:18.382Z,1022.87
2023-03-28T08:49:18.376Z,1023.13
2023-03-28T08:50:18.310Z,1022.79
2023-03-28T08:51:18.277Z,1022.70
2023-03-28T08:52:18.285Z,1023.11
2023-03-28T08:53:18.193Z,1022.75
2023-03-28T08:54:18.226Z,1023.05
2023-03-28T08:55:18.140Z,1022.99
2023-03-28T08:56:18.111Z,1023.00
2023-03-28T08:57:18.125Z,1022.69
2023-03-28T08:58:18.007Z,1022.91
2023-03-28T08:59:17.978Z,1022.49
2023-03-28T09:00:18.015Z,1022.50
2023-03-28T09:01:17.916Z,1022.54
2023-03-28T09:02:17.974Z,1022.80
2023-03-28T09:03:17.917Z,1022.54
2023-03-28T09:04:17.942Z,1022.45
2023-03-28T09:05:23.750Z,1022.80
2023-03-28T09:06:23.137Z,1022.94
2023-03-28T09:07:17.775Z,1022.54
2023-03-28T09:08:19.729Z,1022.66
2023-03-28T09:09:17.615Z,1022.35
2023-03-28T09:10:17.851Z,1022.58
2023-03-28T09:11:17.568Z,1022.31
2023-03-28T09:12:17.598Z,1022.57
2023-03-28T09:13:17.670Z,1022.20
2023-03-28T09:14:17.470Z,1022.23
2023-03-28T09:15:17.437Z,1022.51
2023-03-28T09:16:17.495Z,1022.24
2023-03-28T09:17:17.384Z,1022.27
2023-03-28T09:18:17.328Z,1022.61
2023-03-28T09:19:17.281Z,1022.65
2023-03-28T09:20:17.244Z,1022.17
2023-03-28T09:21:18.009Z,1022.51
2023-03-28T09:22:17.176Z,1022.08
2023-03-28T09:23:17.145Z,1022.21
2023-03-28T09:24:17.197Z,1022.39
2023-03-28T09:25:17.073Z,1022.03
2023-03-28T09:26:17.001Z,1022.04
2023-03-28T09:27:16.988Z,1022.41
2023-03-28T09:28:16.935Z,1022.01
2023-03-28T09:29:16.931Z,1021.98
2023-03-28T09:30:16.859Z,1022.00
2023-03-28T09:31:16.842Z,1022.37
2023-03-28T09:32:16.888Z,1022.06
2023-03-28T09:33:16.781Z,1022.06
2023-03-28T09:34:16.731Z,1022.07
2023-03-28T09:35:16.749Z,1022.07
2023-03-28T09:36:24.834Z,1022.13
2023-03-28T09:37:16.737Z,1022.46
2023-03-28T09:38:17.511Z,1022.46
2023-03-28T09:39:17.108Z,1022.21
2023-03-28T09:40:16.549Z,1022.05
2023-03-28T09:41:17.515Z,1022.52
2023-03-28T09:42:17.037Z,1022.35
2023-03-28T09:43:17.213Z,1022.46
2023-03-28T09:44:17.012Z,1021.95
2023-03-28T09:48:19.775Z,1021.76
2023-03-28T10:07:01.581Z,1022.08
2023-03-28T10:10:14.499Z,1021.71
2023-03-28T10:16:09.005Z,1021.69
2023-03-28T10:20:53.225Z,1022.04
2023-03-28T10:21:51.575Z,1022.04
2023-03-28T10:22:52.161Z,1022.05
2023-03-28T10:24:00.532Z,1021.70
2023-03-28T10:26:23.959Z,1021.67
2023-03-28T12:23:43.623Z,1020.44
2023-03-28T12:24:44.257Z,1020.05
2023-03-28T12:26:22.070Z,1020.43
2023-03-28T12:32:37.951Z,1019.60
2023-03-28T12:32:56.959Z,1019.59
2023-03-28T12:34:00.867Z,1019.58
2023-03-28T12:35:02.365Z,1019.59
2023-03-28T12:35:57.893Z,1019.52
2023-03-28T12:36:54.064Z,1019.84
2023-03-28T12:37:53.545Z,1019.96
2023-03-28T12:38:59.865Z,1019.56
2023-03-28T12:40:09.790Z,1019.78
2023-03-28T12:43:57.373Z,1019.70
2023-03-28T12:45:03.445Z,1019.37
2023-03-28T12:45:57.950Z,1019.30
2023-03-28T12:47:21.921Z,1019.65
2023-03-28T12:47:56.132Z,1019.16
2023-03-28T12:48:52.862Z,1019.18
2023-03-28T12:49:57.427Z,1019.54
2023-03-28T12:50:55.385Z,1019.18
2023-03-28T12:51:54.154Z,1019.55
2023-03-28T12:52:55.142Z,1019.16
2023-03-28T12:53:56.372Z,1019.20
2023-03-28T12:54:57.675Z,1019.33
2023-03-28T12:55:57.013Z,1019.26
2023-03-28T12:56:53.946Z,1019.72
2023-03-28T12:58:02.901Z,1019.19
2023-03-28T13:01:49.640Z,1019.12
2023-03-28T13:04:28.210Z,1019.00
2023-03-28T13:05:33.427Z,1018.97
2023-03-28T13:08:58.523Z,1019.27
2023-03-28T13:09:58.382Z,1018.99
2023-03-28T13:12:30.728Z,1018.91
2023-03-28T13:13:30.002Z,1019.26
2023-03-28T13:16:33.122Z,1018.94
2023-03-28T13:16:34.827Z,1018.90
2023-03-28T13:17:33.824Z,1018.90
2023-03-28T13:18:41.680Z,1019.22
2023-03-28T13:19:32.752Z,1018.88
2023-03-28T13:20:32.885Z,1018.83
2023-03-28T13:21:35.438Z,1019.10
2023-03-28T13:22:39.297Z,1019.12
2023-03-28T13:23:46.277Z,1019.01
2023-03-28T13:24:40.260Z,1019.13
2023-03-28T13:25:34.875Z,1018.91
2023-03-28T13:26:34.191Z,1018.81
2023-03-28T13:27:35.262Z,1018.78
2023-03-28T13:28:36.759Z,1018.80
2023-03-28T13:30:04.458Z,1018.74
2023-03-28T13:30:40.394Z,1018.73
2023-03-28T13:31:32.355Z,1019.10
2023-03-28T13:37:23.121Z,1018.65
2023-03-28T13:49:10.944Z,1018.45
2023-03-28T13:50:06.360Z,1018.36
2023-03-28T13:51:10.016Z,1018.36
2023-03-28T13:55:57.222Z,1018.30
2023-03-28T13:56:59.063Z,1018.30
2023-03-28T13:57:58.868Z,1018.59
2023-03-28T13:58:56.773Z,1018.24
2023-03-28T14:00:23.800Z,1018.23
2023-03-28T14:00:56.042Z,1018.29
2023-03-28T14:01:57.752Z,1018.23
2023-03-28T14:02:57.901Z,1018.24
2023-03-28T14:03:55.925Z,1018.20
2023-03-28T14:15:00.149Z,1017.98
2023-03-28T14:16:00.003Z,1017.99
2023-03-28T14:17:00.121Z,1018.28
2023-03-28T14:18:00.082Z,1017.91
2023-03-28T14:19:00.185Z,1017.94
2023-03-28T14:20:02.104Z,1018.18
2023-03-28T14:21:00.042Z,1018.09
2023-03-28T14:21:59.837Z,1017.79
2023-03-28T14:23:04.353Z,1017.69
2023-03-28T14:24:09.230Z,1017.68
2023-03-28T14:25:58.942Z,1017.75
2023-03-28T14:26:58.632Z,1017.63
2023-03-28T14:27:59.870Z,1017.61
2023-03-28T14:28:59.340Z,1017.55
2023-03-28T14:29:58.486Z,1017.93
2023-03-28T14:31:01.601Z,1017.55
2023-03-28T14:31:59.729Z,1017.58
2023-03-28T14:32:58.375Z,1017.63
2023-03-28T14:33:59.291Z,1017.48
2023-03-28T14:34:58.304Z,1017.45
2023-03-28T14:35:58.350Z,1017.81
2023-03-28T14:36:58.279Z,1017.51
2023-03-28T14:37:58.316Z,1017.43
2023-03-28T14:38:58.213Z,1017.77
2023-03-28T14:39:58.104Z,1017.39
2023-03-28T14:41:13.017Z,1017.33
2023-03-28T14:41:58.035Z,1017.71
2023-03-28T14:42:58.374Z,1017.37
2023-03-28T14:43:58.000Z,1017.38
2023-03-28T14:44:58.789Z,1017.69
2023-03-28T14:57:16.716Z,1016.89
2023-03-28T14:58:08.244Z,1017.19
2023-03-28T14:59:13.976Z,1017.19
2023-03-28T19:18:46.210Z,1013.89
2023-03-28T19:19:45.493Z,1014.27
2023-03-28T19:20:45.479Z,1014.26
2023-03-28T19:21:45.454Z,1013.90
2023-03-28T19:22:45.385Z,1013.86
2023-03-28T19:23:45.350Z,1013.97
2023-03-28T19:24:45.319Z,1014.01
2023-03-28T19:25:45.276Z,1013.99
2023-03-28T19:26:45.234Z,1014.34
2023-03-28T19:27:45.148Z,1014.36
2023-03-28T19:28:45.130Z,1014.06
2023-03-28T19:29:45.086Z,1014.03
2023-03-28T19:30:45.096Z,1014.42
2023-03-28T19:31:45.040Z,1014.08
2023-03-28T19:32:44.965Z,1014.44
2023-03-28T19:33:44.930Z,1014.14
2023-03-28T19:34:44.850Z,1014.14
2023-03-28T19:35:44.824Z,1014.49
2023-03-28T19:36:44.764Z,1014.45
2023-03-28T19:37:44.778Z,1014.06
2023-03-28T19:38:44.708Z,1014.07
2023-03-28T19:39:44.647Z,1014.05
2023-03-28T19:40:44.818Z,1014.09
2023-03-28T19:41:44.580Z,1014.02
2023-03-28T19:42:44.512Z,1014.40
2023-03-28T19:43:44.593Z,1014.38
2023-03-28T19:44:44.482Z,1014.04
2023-03-28T19:45:44.420Z,1014.08
2023-03-28T19:46:44.446Z,1014.03
2023-03-28T19:47:44.407Z,1014.42
2023-03-28T19:48:44.398Z,1014.37
2023-03-28T19:49:44.286Z,1014.37
2023-03-28T19:50:44.180Z,1014.33
2023-03-28T19:51:44.175Z,1014.30
2023-03-28T19:52:44.082Z,1013.87
2023-03-28T19:53:44.034Z,1013.96
2023-03-28T19:54:44.013Z,1014.29
2023-03-28T19:55:43.962Z,1014.08
2023-03-28T19:56:43.999Z,1014.24
2023-03-28T19:57:43.867Z,1013.98
2023-03-28T19:58:43.834Z,1013.90
2023-03-28T19:59:43.791Z,1013.89